createdAt,value
2023-01-29T00:00:17.731Z,11.45
2023-01-29T00:05:27.780Z,11.22
2023-01-29T00:10:29.541Z,11.27
2023-01-29T00:15:31.020Z,11.25
2023-01-29T00:20:32.500Z,11.23
2023-01-29T00:25:33.967Z,10.70
2023-01-29T00:30:36.281Z,11.22
2023-01-29T00:35:39.572Z,11.28
2023-01-29T00:41:00.134Z,11.49
2023-01-29T00:46:01.766Z,11.46
2023-01-29T00:51:03.293Z,11.42
2023-01-29T00:56:04.912Z,11.28
2023-01-29T01:01:06.419Z,11.39
2023-01-29T01:06:09.488Z,11.41
2023-01-29T01:11:10.955Z,11.19
2023-01-29T01:16:13.945Z,11.00
2023-01-29T01:21:15.427Z,10.84
2023-01-29T01:26:16.901Z,10.72
2023-01-29T01:31:18.892Z,10.69
2023-01-29T01:36:20.472Z,10.88
2023-01-29T01:41:22.828Z,10.70
2023-01-29T01:46:25.277Z,10.40
2023-01-29T01:51:26.739Z,10.31
2023-01-29T01:56:40.858Z,9.79
2023-01-29T02:01:43.228Z,10.05
2023-01-29T02:07:02.878Z,9.79
2023-01-29T02:12:09.115Z,9.94
2023-01-29T02:17:12.555Z,9.93
2023-01-29T02:22:33.526Z,10.08
2023-01-29T02:28:12.547Z,10.22
2023-01-29T02:33:35.546Z,9.87
2023-01-29T02:38:45.504Z,9.64
2023-01-29T02:43:56.025Z,10.75
2023-01-29T02:49:04.536Z,10.39
2023-01-29T02:54:21.818Z,10.53
2023-01-29T02:59:25.838Z,10.44
2023-01-29T03:04:31.939Z,10.32
2023-01-29T03:09:34.752Z,10.37
2023-01-29T03:14:56.383Z,10.12
2023-01-29T03:19:57.835Z,9.46
2023-01-29T03:25:17.585Z,9.83
2023-01-29T03:30:37.801Z,9.70
2023-01-29T03:35:43.202Z,9.95
2023-01-29T03:41:08.987Z,9.32
2023-01-29T03:46:32.324Z,9.47
2023-01-29T03:51:40.979Z,9.81
2023-01-29T03:57:05.448Z,10.42
2023-01-29T04:02:15.507Z,9.24
2023-01-29T04:07:23.700Z,10.12
2023-01-29T04:12:28.241Z,9.61
2023-01-29T04:17:34.108Z,9.56
2023-01-29T04:22:37.138Z,9.86
2023-01-29T04:27:57.945Z,9.82
2023-01-29T04:33:33.441Z,8.55
2023-01-29T04:38:52.214Z,9.78
2023-01-29T04:44:01.773Z,8.65
2023-01-29T04:49:13.475Z,8.32
2023-01-29T04:54:23.678Z,9.71
2023-01-29T04:59:37.153Z,9.15
2023-01-29T05:04:38.816Z,9.64
2023-01-29T05:09:40.286Z,9.80
2023-01-29T05:14:42.199Z,10.07
2023-01-29T05:19:43.689Z,10.31
2023-01-29T05:24:46.505Z,10.36
2023-01-29T05:29:48.041Z,9.81
2023-01-29T05:34:49.554Z,9.69
2023-01-29T05:39:51.024Z,9.80
2023-01-29T05:44:52.584Z,10.02
2023-01-29T05:49:54.101Z,9.69
2023-01-29T05:54:55.960Z,10.10
2023-01-29T05:59:57.448Z,10.18
2023-01-29T06:04:58.910Z,9.80
2023-01-29T06:10:00.371Z,9.23
2023-01-29T06:15:01.836Z,9.06
2023-01-29T06:20:04.022Z,9.03
2023-01-29T06:25:06.050Z,9.78
2023-01-29T06:30:09.645Z,9.65
2023-01-29T06:35:11.151Z,9.79
2023-01-29T06:40:12.844Z,8.54
2023-01-29T06:45:14.372Z,9.45
2023-01-29T06:50:16.104Z,8.45
2023-01-29T06:55:17.784Z,9.58
2023-01-29T07:00:20.396Z,8.45
2023-01-29T07:05:22.085Z,8.44
2023-01-29T07:10:23.622Z,9.12
2023-01-29T07:15:25.213Z,9.95
2023-01-29T07:20:27.554Z,9.71
2023-01-29T07:25:30.324Z,9.72
2023-01-29T07:30:31.870Z,8.87
2023-01-29T07:35:36.180Z,8.93
2023-01-29T07:40:37.663Z,9.81
2023-01-29T07:45:39.467Z,10.19
2023-01-29T07:50:40.984Z,10.22
2023-01-29T07:55:44.214Z,10.48
2023-01-29T08:00:45.634Z,10.43
2023-01-29T08:05:47.174Z,9.48
2023-01-29T08:10:48.628Z,10.12
2023-01-29T08:15:50.102Z,9.95
2023-01-29T08:20:52.840Z,10.07
2023-01-29T08:25:54.444Z,10.30
2023-01-29T08:30:56.040Z,9.43
2023-01-29T08:35:57.568Z,8.50
2023-01-29T08:40:59.031Z,8.37
2023-01-29T08:46:00.533Z,8.82
2023-01-29T08:51:02.490Z,9.38
2023-01-29T08:56:04.092Z,10.08
2023-01-29T09:01:06.980Z,9.72
2023-01-29T09:06:09.356Z,10.38
2023-01-29T09:11:11.162Z,10.40
2023-01-29T09:16:12.683Z,9.57
2023-01-29T09:21:14.137Z,9.19
2023-01-29T09:26:15.611Z,9.50
2023-01-29T09:31:17.231Z,8.75
2023-01-29T09:36:18.959Z,9.96
2023-01-29T09:41:39.060Z,9.46
2023-01-29T09:46:44.284Z,8.52
2023-01-29T09:51:51.489Z,9.71
2023-01-29T09:56:55.064Z,10.16
2023-01-29T10:02:18.476Z,9.46
2023-01-29T10:07:31.913Z,9.32
2023-01-29T10:13:05.574Z,9.84
2023-01-29T10:18:31.560Z,9.70
2023-01-29T10:23:37.694Z,9.91
2023-01-29T10:28:46.394Z,8.66
2023-01-29T10:34:02.182Z,9.64
2023-01-29T10:39:04.331Z,9.52
2023-01-29T10:44:20.990Z,9.55
2023-01-29T10:49:41.938Z,8.83
2023-01-29T10:55:22.876Z,9.20
2023-01-29T11:00:28.559Z,9.18
2023-01-29T11:05:32.914Z,9.52
2023-01-29T11:10:37.804Z,9.89
2023-01-29T11:15:39.291Z,9.57
2023-01-29T11:20:41.972Z,11.17
2023-01-29T11:25:45.789Z,11.12
2023-01-29T11:30:47.478Z,11.41
2023-01-29T11:35:48.953Z,11.41
2023-01-29T11:40:50.446Z,11.83
2023-01-29T11:45:54.189Z,12.21
2023-01-29T11:50:57.420Z,11.95
2023-01-29T11:55:59.111Z,11.85
2023-01-29T12:01:01.124Z,11.60
2023-01-29T12:06:07.480Z,11.42
2023-01-29T12:11:11.021Z,11.63
2023-01-29T12:16:17.199Z,10.52
2023-01-29T12:21:23.069Z,9.59
2023-01-29T12:26:44.657Z,8.68
2023-01-29T12:31:55.385Z,8.43
2023-01-29T12:37:09.739Z,8.93
2023-01-29T12:42:16.453Z,9.24
2023-01-29T12:47:33.416Z,9.13
2023-01-29T12:53:02.034Z,9.04
2023-01-29T12:58:04.772Z,9.11
2023-01-29T13:03:27.984Z,8.93
2023-01-29T13:08:37.551Z,8.77
2023-01-29T13:13:38.793Z,9.11
2023-01-29T13:18:42.325Z,9.27
2023-01-29T13:23:54.529Z,8.77
2023-01-29T13:28:55.995Z,9.79
2023-01-29T13:34:08.217Z,9.44
2023-01-29T13:39:17.373Z,9.31
2023-01-29T13:44:26.957Z,9.20
2023-01-29T13:49:35.598Z,9.05
2023-01-29T13:54:37.115Z,9.12
2023-01-29T13:59:53.050Z,10.08
2023-01-29T14:05:12.937Z,10.08
2023-01-29T14:10:15.586Z,10.85
2023-01-29T14:15:22.402Z,10.14
2023-01-29T14:20:27.724Z,10.65
2023-01-29T14:25:34.765Z,10.37
2023-01-29T14:30:36.374Z,10.81
2023-01-29T14:35:37.876Z,10.18
2023-01-29T14:40:41.169Z,10.50
2023-01-29T14:45:43.925Z,9.82
2023-01-29T14:50:49.532Z,10.22
2023-01-29T14:56:03.181Z,10.09
2023-01-29T15:01:07.106Z,10.12
2023-01-29T15:06:09.102Z,10.63
2023-01-29T15:11:35.857Z,9.57
2023-01-29T15:16:42.441Z,10.17
2023-01-29T15:22:03.331Z,9.81
2023-01-29T15:27:06.489Z,10.65
2023-01-29T15:32:08.167Z,10.01
2023-01-29T15:37:27.672Z,10.25
2023-01-29T15:42:29.687Z,10.81
2023-01-29T15:47:31.438Z,10.72
2023-01-29T15:52:35.092Z,10.17
2023-01-29T15:57:37.768Z,9.54
2023-01-29T16:02:40.460Z,9.78
2023-01-29T16:07:42.231Z,9.73
2023-01-29T16:12:43.703Z,10.19
2023-01-29T16:17:45.168Z,9.63
2023-01-29T16:22:46.642Z,9.89
2023-01-29T16:27:48.124Z,9.30
2023-01-29T16:32:49.583Z,9.55
2023-01-29T16:37:51.067Z,9.23
2023-01-29T16:43:28.393Z,9.25
2023-01-29T16:48:33.966Z,9.19
2023-01-29T16:53:35.440Z,9.66
2023-01-29T16:58:37.082Z,9.51
2023-01-29T17:03:38.602Z,8.94
2023-01-29T17:08:42.835Z,8.37
2023-01-29T17:13:44.391Z,8.81
2023-01-29T17:18:45.883Z,8.36
2023-01-29T17:23:47.357Z,8.93
2023-01-29T17:28:51.712Z,9.15
2023-01-29T17:33:53.191Z,9.46
2023-01-29T17:38:54.682Z,8.93
2023-01-29T17:43:56.145Z,9.76
2023-01-29T17:48:57.608Z,9.08
2023-01-29T17:53:59.072Z,9.34
2023-01-29T17:59:00.912Z,9.82
2023-01-29T18:04:02.519Z,9.22
2023-01-29T18:09:04.062Z,9.14
2023-01-29T18:14:10.242Z,7.72
2023-01-29T18:19:16.625Z,9.13
2023-01-29T18:24:20.286Z,8.72
2023-01-29T18:29:21.769Z,8.80
2023-01-29T18:34:23.275Z,9.06
2023-01-29T18:39:25.188Z,9.46
2023-01-29T18:44:29.620Z,8.51
2023-01-29T18:49:31.593Z,8.75
2023-01-29T18:54:34.118Z,8.70
2023-01-29T18:59:35.594Z,9.20
2023-01-29T19:04:37.325Z,8.10
2023-01-29T19:09:40.367Z,8.97
2023-01-29T19:14:41.963Z,8.37
2023-01-29T19:19:43.504Z,9.45
2023-01-29T19:24:45.771Z,8.16
2023-01-29T19:29:47.265Z,8.63
2023-01-29T19:34:48.730Z,8.70
2023-01-29T19:39:50.232Z,8.87
2023-01-29T19:44:53.301Z,8.81
2023-01-29T19:49:54.778Z,8.79
2023-01-29T19:54:56.244Z,8.34
2023-01-29T19:59:58.181Z,8.61
2023-01-29T20:05:01.171Z,8.34
2023-01-29T20:10:02.699Z,8.14
2023-01-29T20:15:05.387Z,9.03
2023-01-29T20:20:07.164Z,8.58
2023-01-29T20:25:09.023Z,8.11
2023-01-29T20:30:11.050Z,8.71
2023-01-29T20:35:12.514Z,8.23
2023-01-29T20:40:15.418Z,8.68
2023-01-29T20:45:17.063Z,7.93
2023-01-29T20:50:19.867Z,8.48
2023-01-29T20:55:21.409Z,8.58
2023-01-29T21:00:23.058Z,8.38
2023-01-29T21:05:24.620Z,8.36
2023-01-29T21:10:26.095Z,8.59
2023-01-29T21:15:27.558Z,8.24
2023-01-29T21:20:29.032Z,9.09
2023-01-29T21:25:30.546Z,8.58
2023-01-29T21:30:32.210Z,8.88
2023-01-29T21:35:33.862Z,8.55
2023-01-29T21:40:35.324Z,9.06
2023-01-29T21:45:37.329Z,9.06
2023-01-29T21:50:38.804Z,9.33
2023-01-29T21:55:40.273Z,9.07
2023-01-29T22:00:41.740Z,9.24
2023-01-29T22:05:43.203Z,8.16
2023-01-29T22:10:44.674Z,8.90
2023-01-29T22:15:46.342Z,9.22
2023-01-29T22:20:52.999Z,9.11
2023-01-29T22:25:54.722Z,8.47
2023-01-29T22:31:01.407Z,9.03
2023-01-29T22:36:02.923Z,8.18
2023-01-29T22:41:05.404Z,8.66
2023-01-29T22:46:10.502Z,8.87
2023-01-29T22:51:12.915Z,9.15
2023-01-29T22:56:14.494Z,9.41
2023-01-29T23:01:21.260Z,9.14
2023-01-29T23:06:22.824Z,9.17
2023-01-29T23:11:24.326Z,9.16
2023-01-29T23:16:27.992Z,9.65
2023-01-29T23:21:29.598Z,8.99
2023-01-29T23:26:49.399Z,9.31
2023-01-29T23:31:50.902Z,8.52
2023-01-29T23:36:52.380Z,8.68
2023-01-29T23:41:53.848Z,9.17
2023-01-29T23:46:55.391Z,8.49
2023-01-29T23:51:56.897Z,8.60
2023-01-29T23:56:58.369Z,8.51
